createdAt,value
2019-05-10T00:00:27.007Z,2.30
2019-05-10T00:03:14.476Z,2.30
2019-05-10T00:05:59.806Z,2.30
2019-05-10T00:08:45.003Z,2.20
2019-05-10T00:11:15.724Z,2.20
2019-05-10T00:13:50.181Z,2.20
2019-05-10T00:16:17.431Z,2.10
2019-05-10T00:18:44.512Z,2.10
2019-05-10T00:21:12.573Z,2.00
2019-05-10T00:23:39.834Z,2.00
2019-05-10T00:26:06.878Z,2.00
2019-05-10T00:28:34.047Z,2.00
2019-05-10T00:31:01.494Z,2.00
2019-05-10T00:33:28.745Z,2.10
2019-05-10T00:35:55.784Z,2.20
2019-05-10T00:38:22.829Z,2.30
2019-05-10T00:40:49.896Z,2.30
2019-05-10T00:43:17.000Z,2.40
2019-05-10T00:45:44.060Z,2.50
2019-05-10T00:48:11.092Z,2.70
2019-05-10T00:50:38.084Z,2.70
2019-05-10T00:53:05.111Z,2.80
2019-05-10T00:55:32.197Z,2.90
2019-05-10T00:58:00.189Z,3.00
2019-05-10T01:00:27.361Z,3.10
2019-05-10T01:02:54.358Z,3.20
2019-05-10T01:05:21.475Z,3.20
2019-05-10T01:07:48.471Z,3.20
2019-05-10T01:10:15.687Z,3.30
2019-05-10T01:12:42.657Z,3.30
2019-05-10T01:15:10.080Z,3.20
2019-05-10T01:17:37.052Z,3.20
2019-05-10T01:20:05.827Z,3.10
2019-05-10T01:22:32.789Z,3.00
2019-05-10T01:24:59.877Z,3.00
2019-05-10T01:27:26.858Z,2.90
2019-05-10T01:29:56.665Z,2.90
2019-05-10T01:32:24.431Z,2.80
2019-05-10T01:34:51.443Z,2.80
2019-05-10T01:37:18.440Z,2.70
2019-05-10T01:39:45.509Z,2.70
2019-05-10T01:42:12.513Z,2.70
2019-05-10T01:44:39.586Z,2.60
2019-05-10T01:47:06.653Z,2.60
2019-05-10T01:49:33.715Z,2.50
2019-05-10T01:52:00.726Z,2.50
2019-05-10T01:54:27.792Z,2.40
2019-05-10T01:56:54.775Z,2.30
2019-05-10T01:59:21.850Z,2.30
2019-05-10T02:01:48.844Z,2.20
2019-05-10T02:04:17.698Z,2.20
2019-05-10T02:06:46.315Z,2.20
2019-05-10T02:09:13.462Z,2.20
2019-05-10T02:11:40.433Z,2.10
2019-05-10T02:14:07.554Z,2.10
2019-05-10T02:16:34.513Z,2.10
2019-05-10T02:19:04.037Z,2.10
2019-05-10T02:21:31.163Z,2.00
2019-05-10T02:23:58.151Z,2.00
2019-05-10T02:26:25.200Z,2.00
2019-05-10T02:28:52.298Z,2.00
2019-05-10T02:31:21.769Z,2.00
2019-05-10T02:33:48.169Z,1.90
2019-05-10T02:36:15.194Z,1.90
2019-05-10T02:38:42.180Z,1.80
2019-05-10T02:41:10.240Z,1.70
2019-05-10T02:43:37.261Z,1.60
2019-05-10T02:46:04.279Z,1.70
2019-05-10T02:48:31.714Z,1.70
2019-05-10T02:50:58.725Z,1.80
2019-05-10T02:53:25.691Z,1.90
2019-05-10T02:55:53.032Z,2.00
2019-05-10T02:58:20.047Z,2.10
2019-05-10T03:00:48.919Z,2.20
2019-05-10T03:03:17.090Z,2.20
2019-05-10T03:05:48.447Z,2.20
2019-05-10T03:08:15.602Z,2.20
2019-05-10T03:10:56.083Z,2.20
2019-05-10T03:13:27.287Z,2.10
2019-05-10T03:15:57.663Z,2.00
2019-05-10T03:18:27.070Z,2.00
2019-05-10T03:20:57.678Z,1.90
2019-05-10T03:23:25.761Z,1.90
2019-05-10T03:25:55.019Z,1.90
2019-05-10T03:28:22.581Z,1.90
2019-05-10T03:30:49.642Z,1.90
2019-05-10T03:33:16.689Z,1.90
2019-05-10T03:35:45.906Z,1.80
2019-05-10T03:38:13.234Z,1.80
2019-05-10T03:40:40.246Z,1.80
2019-05-10T03:43:07.403Z,1.80
2019-05-10T03:45:34.444Z,1.80
2019-05-10T03:48:01.570Z,1.80
2019-05-10T03:50:28.498Z,1.70
2019-05-10T03:52:55.545Z,1.70
2019-05-10T03:55:22.594Z,1.70
2019-05-10T03:57:49.727Z,1.70
2019-05-10T04:00:16.856Z,1.70
2019-05-10T04:02:56.762Z,1.70
2019-05-10T04:05:23.827Z,1.80
2019-05-10T04:07:50.846Z,1.80
2019-05-10T04:10:20.978Z,1.90
2019-05-10T04:12:48.237Z,2.00
2019-05-10T04:15:15.244Z,2.10
2019-05-10T04:17:42.254Z,2.30
2019-05-10T04:20:09.403Z,2.40
2019-05-10T04:22:36.450Z,2.50
2019-05-10T04:25:05.590Z,2.60
2019-05-10T04:27:33.331Z,2.80
2019-05-10T04:30:00.597Z,2.80
2019-05-10T04:32:27.682Z,3.00
2019-05-10T04:34:54.758Z,3.00
2019-05-10T04:37:22.293Z,3.10
2019-05-10T04:39:49.293Z,3.10
2019-05-10T04:42:16.679Z,3.10
2019-05-10T04:44:44.089Z,3.10
2019-05-10T04:47:11.202Z,3.20
2019-05-10T04:49:38.219Z,3.40
2019-05-10T04:52:06.313Z,3.90
2019-05-10T04:54:33.327Z,4.60
2019-05-10T04:57:00.392Z,5.20
2019-05-10T04:59:27.428Z,6.00
2019-05-10T05:01:56.787Z,6.60
2019-05-10T05:04:23.831Z,7.10
2019-05-10T05:06:51.775Z,7.60
2019-05-10T05:09:18.889Z,8.00
2019-05-10T05:11:46.026Z,8.40
2019-05-10T05:14:13.440Z,8.60
2019-05-10T05:16:40.604Z,8.70
2019-05-10T05:19:10.107Z,8.80
2019-05-10T05:21:37.337Z,9.10
2019-05-10T05:24:04.510Z,9.40
2019-05-10T05:26:31.622Z,9.60
2019-05-10T05:28:58.749Z,9.70
2019-05-10T05:31:25.841Z,9.60
2019-05-10T05:33:52.931Z,9.50
2019-05-10T05:36:19.994Z,9.70
2019-05-10T05:38:49.559Z,9.90
2019-05-10T05:41:15.884Z,10.00
2019-05-10T05:43:46.330Z,10.20
2019-05-10T05:46:14.428Z,10.30
2019-05-10T05:48:40.912Z,10.30
2019-05-10T05:51:08.299Z,10.30
2019-05-10T05:53:42.003Z,10.40
2019-05-10T05:56:12.722Z,10.30
2019-05-10T05:58:46.809Z,10.70
2019-05-10T06:01:24.607Z,10.70
2019-05-10T06:03:42.121Z,10.60
2019-05-10T06:06:21.427Z,10.80
2019-05-10T06:08:38.296Z,10.60
2019-05-10T06:11:09.040Z,10.60
2019-05-10T06:13:35.365Z,11.00
2019-05-10T06:16:06.547Z,11.30
2019-05-10T06:18:31.302Z,11.20
2019-05-10T06:20:58.363Z,11.50
2019-05-10T06:23:29.339Z,12.00
2019-05-10T06:25:55.099Z,11.90
2019-05-10T06:28:27.025Z,11.70
2019-05-10T06:30:51.031Z,11.80
2019-05-10T06:33:18.131Z,11.90
2019-05-10T06:35:45.140Z,12.20
2019-05-10T06:38:13.762Z,12.20
2019-05-10T06:40:46.797Z,12.10
2019-05-10T06:43:13.326Z,12.20
2019-05-10T06:45:38.498Z,12.50
2019-05-10T06:48:05.649Z,12.50
2019-05-10T06:50:34.475Z,12.20
2019-05-10T06:53:07.571Z,12.70
2019-05-10T06:55:30.519Z,13.00
2019-05-10T06:58:00.639Z,13.70
2019-05-10T07:00:26.420Z,14.00
2019-05-10T07:02:53.482Z,14.10
2019-05-10T07:05:20.531Z,14.40
2019-05-10T07:07:48.563Z,14.50
2019-05-10T07:10:19.055Z,14.90
2019-05-10T07:12:45.624Z,15.10
2019-05-10T07:15:13.672Z,14.90
2019-05-10T07:17:45.233Z,14.60
2019-05-10T07:20:09.705Z,14.80
2019-05-10T07:22:36.725Z,14.80
2019-05-10T07:25:07.527Z,15.10
2019-05-10T07:27:36.601Z,15.00
2019-05-10T07:30:04.790Z,14.60
2019-05-10T07:32:31.920Z,14.50
2019-05-10T07:35:01.013Z,14.70
2019-05-10T07:37:28.901Z,14.60
2019-05-10T07:39:55.915Z,14.90
2019-05-10T07:42:22.973Z,15.40
2019-05-10T07:44:50.137Z,15.70
2019-05-10T07:47:17.407Z,15.70
2019-05-10T07:49:44.568Z,14.60
2019-05-10T07:52:11.717Z,13.80
2019-05-10T07:54:45.432Z,14.10
2019-05-10T07:57:07.693Z,14.80
2019-05-10T07:59:49.475Z,14.50
2019-05-10T08:02:06.093Z,14.00
2019-05-10T08:04:33.692Z,13.00
2019-05-10T08:07:01.029Z,12.80
2019-05-10T08:09:31.561Z,13.00
2019-05-10T08:12:03.277Z,12.60
2019-05-10T08:14:25.918Z,13.00
2019-05-10T08:16:58.356Z,13.30
2019-05-10T08:19:22.113Z,13.10
2019-05-10T08:21:56.488Z,12.50
2019-05-10T08:24:19.096Z,12.90
2019-05-10T08:26:46.211Z,13.70
2019-05-10T08:29:16.753Z,14.60
2019-05-10T08:31:50.529Z,14.30
2019-05-10T08:34:11.779Z,13.80
2019-05-10T08:36:43.365Z,13.10
2019-05-10T08:39:11.040Z,13.40
2019-05-10T08:41:36.781Z,14.00
2019-05-10T08:44:04.901Z,13.70
2019-05-10T08:46:40.056Z,14.00
2019-05-10T08:49:02.128Z,14.60
2019-05-10T08:51:29.425Z,15.10
2019-05-10T08:54:08.909Z,15.60
2019-05-10T08:56:35.965Z,15.60
2019-05-10T08:59:03.894Z,14.10
2019-05-10T09:01:38.414Z,13.80
2019-05-10T09:04:06.116Z,14.20
2019-05-10T09:06:28.887Z,14.20
2019-05-10T09:09:01.826Z,14.00
2019-05-10T09:11:24.806Z,13.00
2019-05-10T09:13:53.859Z,12.70
2019-05-10T09:16:23.547Z,12.50
2019-05-10T09:18:51.161Z,12.30
2019-05-10T09:21:18.988Z,11.90
2019-05-10T09:23:52.863Z,11.50
2019-05-10T09:26:16.447Z,11.40
2019-05-10T09:28:47.534Z,11.40
2019-05-10T09:31:21.546Z,11.90
2019-05-10T09:33:49.155Z,13.30
2019-05-10T09:36:12.438Z,14.30
2019-05-10T09:38:43.391Z,15.20
2019-05-10T09:41:08.792Z,16.10
2019-05-10T09:43:42.434Z,16.70
2019-05-10T09:46:04.857Z,17.00
2019-05-10T09:48:33.301Z,17.20
2019-05-10T09:51:03.769Z,17.40
2019-05-10T09:53:30.669Z,17.40
2019-05-10T09:56:02.513Z,17.60
2019-05-10T09:58:28.273Z,17.70
2019-05-10T10:01:13.383Z,17.80
2019-05-10T10:03:29.573Z,18.10
2019-05-10T10:06:05.141Z,17.60
2019-05-10T10:08:25.032Z,16.00
2019-05-10T10:10:52.139Z,15.10
2019-05-10T10:13:35.706Z,14.50
2019-05-10T10:15:52.036Z,14.20
2019-05-10T10:18:21.129Z,13.70
2019-05-10T10:20:47.902Z,13.30
2019-05-10T10:23:14.731Z,13.20
2019-05-10T10:25:42.268Z,13.10
2019-05-10T10:28:16.867Z,13.10
2019-05-10T10:30:38.386Z,13.70
2019-05-10T10:33:05.871Z,14.30
2019-05-10T10:35:34.304Z,15.30
2019-05-10T10:38:02.994Z,16.10
2019-05-10T10:40:35.463Z,16.60
2019-05-10T10:42:59.187Z,16.90
2019-05-10T10:45:27.694Z,17.20
2019-05-10T10:47:57.154Z,17.10
2019-05-10T10:50:23.679Z,16.50
2019-05-10T10:52:50.705Z,16.30
2019-05-10T10:55:18.708Z,16.30
2019-05-10T10:57:48.085Z,15.90
2019-05-10T11:00:23.276Z,15.10
2019-05-10T11:02:51.958Z,14.60
2019-05-10T11:05:16.207Z,13.80
2019-05-10T11:07:47.233Z,13.50
2019-05-10T11:10:19.022Z,13.60
2019-05-10T11:12:41.439Z,13.50
2019-05-10T11:15:11.213Z,13.40
2019-05-10T11:17:37.848Z,13.30
2019-05-10T11:20:08.658Z,13.40
2019-05-10T11:22:35.672Z,13.60
2019-05-10T11:25:09.554Z,14.10
2019-05-10T11:27:33.242Z,14.90
2019-05-10T11:30:00.872Z,14.10
2019-05-10T11:32:28.179Z,13.60
2019-05-10T11:34:55.309Z,13.40
2019-05-10T11:37:31.218Z,13.30
2019-05-10T11:39:52.036Z,12.90
2019-05-10T11:42:21.190Z,13.00
2019-05-10T11:44:50.828Z,13.00
2019-05-10T11:47:24.075Z,13.10
2019-05-10T11:49:46.749Z,13.10
2019-05-10T11:52:13.845Z,13.10
2019-05-10T11:54:41.730Z,13.00
2019-05-10T11:57:10.896Z,13.10
2019-05-10T11:59:39.164Z,13.50
2019-05-10T12:02:10.291Z,13.30
2019-05-10T12:04:39.629Z,12.70
2019-05-10T12:07:08.390Z,11.80
2019-05-10T12:09:34.558Z,11.00
2019-05-10T12:14:30.721Z,10.20
2019-05-10T12:16:57.839Z,10.10
2019-05-10T12:19:24.948Z,9.90
2019-05-10T12:21:55.971Z,9.80
2019-05-10T12:26:19.144Z,10.60
2019-05-10T12:26:57.077Z,9.70
2019-05-10T12:29:21.127Z,9.60
2019-05-10T12:31:53.382Z,9.60
2019-05-10T12:34:16.621Z,9.60
2019-05-10T12:36:43.684Z,9.70
2019-05-10T12:39:11.647Z,9.70
2019-05-10T12:41:45.084Z,9.50
2019-05-10T12:44:07.844Z,9.50
2019-05-10T12:46:34.889Z,9.40
2019-05-10T12:49:04.804Z,9.20
2019-05-10T12:51:31.259Z,9.20
2019-05-10T12:53:58.583Z,9.10
2019-05-10T12:56:25.709Z,9.10
2019-05-10T12:58:59.329Z,9.00
2019-05-10T13:01:25.499Z,8.80
2019-05-10T13:03:50.685Z,8.80
2019-05-10T13:06:19.834Z,8.80
2019-05-10T13:08:47.734Z,8.90
2019-05-10T13:11:19.079Z,9.00
2019-05-10T13:13:44.634Z,9.20
2019-05-10T13:16:11.928Z,9.90
2019-05-10T13:18:50.230Z,10.00
2019-05-10T13:21:19.512Z,10.10
2019-05-10T13:23:37.140Z,9.90
2019-05-10T13:26:04.205Z,9.50
2019-05-10T13:28:31.248Z,9.20
2019-05-10T13:30:59.939Z,9.00
2019-05-10T13:33:29.376Z,9.10
2019-05-10T13:35:57.043Z,9.20
2019-05-10T13:38:24.912Z,9.20
2019-05-10T13:40:52.005Z,9.10
2019-05-10T13:43:26.463Z,9.00
2019-05-10T13:45:48.955Z,9.00
2019-05-10T13:48:16.138Z,9.30
2019-05-10T13:50:43.263Z,9.90
2019-05-10T13:53:20.245Z,9.70
2019-05-10T13:55:39.334Z,9.50
2019-05-10T13:58:06.505Z,9.30
2019-05-10T14:00:35.655Z,9.10
2019-05-10T14:03:04.943Z,8.90
2019-05-10T14:05:31.750Z,8.90
2019-05-10T14:07:59.662Z,8.80
2019-05-10T14:10:26.796Z,8.90
2019-05-10T14:12:56.021Z,8.90
2019-05-10T14:15:22.858Z,9.00
2019-05-10T14:17:49.959Z,9.00
2019-05-10T14:20:25.274Z,8.80
2019-05-10T14:22:48.404Z,8.80
2019-05-10T14:25:15.585Z,8.70
2019-05-10T14:27:42.699Z,8.60
2019-05-10T14:30:13.379Z,8.70
2019-05-10T14:32:39.066Z,8.60
2019-05-10T14:35:06.377Z,8.70
2019-05-10T14:37:34.403Z,8.90
2019-05-10T14:40:01.420Z,8.80
2019-05-10T14:42:30.915Z,8.70
2019-05-10T14:44:57.311Z,8.60
2019-05-10T14:47:24.422Z,8.40
2019-05-10T14:49:51.459Z,8.40
2019-05-10T14:52:18.615Z,8.20
2019-05-10T14:54:49.837Z,8.40
2019-05-10T14:57:14.550Z,8.40
2019-05-10T14:59:42.692Z,8.60
2019-05-10T15:02:09.772Z,8.60
2019-05-10T15:04:46.437Z,8.50
2019-05-10T15:07:08.747Z,8.30
2019-05-10T15:09:34.626Z,8.50
2019-05-10T15:12:01.761Z,8.80
2019-05-10T15:14:28.799Z,8.70
2019-05-10T15:16:55.979Z,8.50
2019-05-10T15:19:27.145Z,8.60
2019-05-10T15:21:51.869Z,8.60
2019-05-10T15:24:18.908Z,8.50
2019-05-10T15:26:46.137Z,8.50
2019-05-10T15:29:15.036Z,8.50
2019-05-10T15:31:42.067Z,8.60
2019-05-10T15:34:12.520Z,8.60
2019-05-10T15:36:40.347Z,9.50
2019-05-10T15:39:07.379Z,8.30
2019-05-10T15:41:34.474Z,8.10
2019-05-10T15:44:01.439Z,8.00
2019-05-10T15:46:35.332Z,7.90
2019-05-10T15:48:57.348Z,7.90
2019-05-10T15:51:35.719Z,7.90
2019-05-10T15:54:03.837Z,7.90
2019-05-10T15:56:22.516Z,7.90
2019-05-10T15:58:49.569Z,8.00
2019-05-10T16:01:26.033Z,8.00
2019-05-10T16:03:45.462Z,8.00
2019-05-10T16:06:12.526Z,8.00
2019-05-10T16:08:39.561Z,8.00
2019-05-10T16:11:17.925Z,8.00
2019-05-10T16:13:35.441Z,8.10
2019-05-10T16:16:02.588Z,8.00
2019-05-10T16:18:33.282Z,8.00
2019-05-10T16:20:58.532Z,8.00
2019-05-10T16:23:26.630Z,8.00
2019-05-10T16:25:53.678Z,8.00
2019-05-10T16:28:22.809Z,8.00
2019-05-10T16:30:49.559Z,7.90
2019-05-10T16:33:18.265Z,8.00
2019-05-10T16:35:49.516Z,8.00
2019-05-10T16:38:14.416Z,7.90
2019-05-10T16:40:44.456Z,7.90
2019-05-10T16:43:14.003Z,7.90
2019-05-10T16:45:39.431Z,7.90
2019-05-10T16:48:06.860Z,6.50
2019-05-10T16:50:34.558Z,7.90
2019-05-10T16:53:05.757Z,7.90
2019-05-10T16:55:30.524Z,8.00
2019-05-10T16:57:57.642Z,8.10
2019-05-10T17:00:24.807Z,8.00
2019-05-10T17:02:51.782Z,8.00
2019-05-10T17:05:21.314Z,8.00
2019-05-10T17:07:48.350Z,8.00
2019-05-10T17:10:15.416Z,7.90
2019-05-10T17:12:42.448Z,7.90
2019-05-10T17:15:09.901Z,8.00
2019-05-10T17:17:38.987Z,8.00
2019-05-10T17:20:07.227Z,7.90
2019-05-10T17:22:35.634Z,7.90
2019-05-10T17:25:05.475Z,7.90
2019-05-10T17:27:32.514Z,7.80
2019-05-10T17:29:59.579Z,7.90
2019-05-10T17:32:26.846Z,7.90
2019-05-10T17:34:54.181Z,7.90
2019-05-10T17:37:21.217Z,8.00
2019-05-10T17:39:48.283Z,8.10
2019-05-10T17:42:16.471Z,8.10
2019-05-10T17:44:44.529Z,8.00
2019-05-10T17:47:11.727Z,8.00
2019-05-10T17:49:38.785Z,8.00
2019-05-10T17:52:06.087Z,7.90
2019-05-10T17:54:33.830Z,8.00
2019-05-10T17:57:01.932Z,7.90
2019-05-10T17:59:28.985Z,8.00
2019-05-10T18:01:56.166Z,8.00
2019-05-10T18:04:23.209Z,7.90
2019-05-10T18:06:50.382Z,7.60
2019-05-10T18:09:17.471Z,7.40
2019-05-10T18:11:44.999Z,7.50
2019-05-10T18:14:12.568Z,7.60
2019-05-10T18:16:41.981Z,7.60
2019-05-10T18:19:09.932Z,7.60
2019-05-10T18:21:37.047Z,7.60
2019-05-10T18:24:04.119Z,7.60
2019-05-10T18:26:34.049Z,7.70
2019-05-10T18:29:00.747Z,7.70
2019-05-10T18:31:27.901Z,7.70
2019-05-10T18:33:55.980Z,7.70
2019-05-10T18:36:24.810Z,7.70
2019-05-10T18:38:54.375Z,7.60
2019-05-10T18:41:21.694Z,7.60
2019-05-10T18:43:48.810Z,7.60
2019-05-10T18:46:15.960Z,7.50
2019-05-10T18:48:42.930Z,7.40
2019-05-10T18:51:09.951Z,7.40
2019-05-10T18:53:36.992Z,7.30
2019-05-10T18:56:04.108Z,7.30
2019-05-10T18:58:31.544Z,7.20
2019-05-10T19:01:00.550Z,7.10
2019-05-10T19:03:32.933Z,7.00
2019-05-10T19:05:57.973Z,6.90
2019-05-10T19:08:27.285Z,6.90
2019-05-10T19:10:54.394Z,6.80
2019-05-10T19:13:21.768Z,6.80
2019-05-10T19:15:52.870Z,6.70
2019-05-10T19:18:23.107Z,6.70
2019-05-10T19:20:48.761Z,6.60
2019-05-10T19:23:19.677Z,6.50
2019-05-10T19:25:45.510Z,6.50
2019-05-10T19:28:13.500Z,6.50
2019-05-10T19:30:40.632Z,6.40
2019-05-10T19:33:07.622Z,6.40
2019-05-10T19:35:35.862Z,6.40
2019-05-10T19:38:03.545Z,6.30
2019-05-10T19:40:30.620Z,6.30
2019-05-10T19:42:57.593Z,6.30
2019-05-10T19:45:24.695Z,6.20
2019-05-10T19:47:55.664Z,6.20
2019-05-10T19:50:24.434Z,6.10
2019-05-10T19:52:49.358Z,6.10
2019-05-10T19:55:19.416Z,6.10
2019-05-10T19:57:49.634Z,6.10
2019-05-10T20:00:14.833Z,6.00
2019-05-10T20:02:42.679Z,6.00
2019-05-10T20:05:09.717Z,6.00
2019-05-10T20:07:45.331Z,6.00
2019-05-10T20:10:07.873Z,5.90
2019-05-10T20:12:34.450Z,5.90
2019-05-10T20:15:01.582Z,5.90
2019-05-10T20:17:29.514Z,5.80
2019-05-10T20:19:56.686Z,5.80
2019-05-10T20:22:23.682Z,5.80
2019-05-10T20:24:51.627Z,5.80
2019-05-10T20:27:18.808Z,5.70
2019-05-10T20:29:45.982Z,5.70
2019-05-10T20:32:13.180Z,5.70
2019-05-10T20:34:40.459Z,5.60
2019-05-10T20:37:07.619Z,5.60
2019-05-10T20:39:34.770Z,5.60
2019-05-10T20:42:02.061Z,5.60
2019-05-10T20:44:29.185Z,5.60
2019-05-10T20:46:56.361Z,5.60
2019-05-10T20:49:23.463Z,5.60
2019-05-10T20:51:50.598Z,5.50
2019-05-10T20:54:17.816Z,5.50
2019-05-10T20:56:44.927Z,5.50
2019-05-10T20:59:12.057Z,5.50
2019-05-10T21:01:39.173Z,5.50
2019-05-10T21:04:06.339Z,5.50
2019-05-10T21:06:33.438Z,5.50
2019-05-10T21:09:00.485Z,5.50
2019-05-10T21:11:31.592Z,5.50
2019-05-10T21:13:58.753Z,5.50
2019-05-10T21:16:25.756Z,5.50
2019-05-10T21:18:52.871Z,5.50
2019-05-10T21:21:19.882Z,5.50
2019-05-10T21:23:46.929Z,5.50
2019-05-10T21:26:13.951Z,5.40
2019-05-10T21:28:41.037Z,5.30
2019-05-10T21:31:09.162Z,5.30
2019-05-10T21:33:36.161Z,5.20
2019-05-10T21:36:03.619Z,5.20
2019-05-10T21:38:32.935Z,5.20
2019-05-10T21:40:59.554Z,5.20
2019-05-10T21:43:26.627Z,5.20
2019-05-10T21:45:53.732Z,5.20
2019-05-10T21:48:21.722Z,5.20
2019-05-10T21:50:48.874Z,5.20
2019-05-10T21:53:15.921Z,5.30
2019-05-10T21:55:42.977Z,5.30
2019-05-10T21:58:10.013Z,5.30
2019-05-10T22:00:38.910Z,5.20
2019-05-10T22:03:05.968Z,5.20
2019-05-10T22:05:33.159Z,5.20
2019-05-10T22:08:00.182Z,5.20
2019-05-10T22:10:27.226Z,5.20
2019-05-10T22:12:54.419Z,5.30
2019-05-10T22:15:21.488Z,5.20
2019-05-10T22:17:48.578Z,5.20
2019-05-10T22:20:15.829Z,5.30
2019-05-10T22:22:43.769Z,5.30
2019-05-10T22:25:10.936Z,5.30
2019-05-10T22:27:38.009Z,5.30
2019-05-10T22:30:06.695Z,5.30
2019-05-10T22:32:33.731Z,5.30
2019-05-10T22:35:00.759Z,5.30
2019-05-10T22:37:27.901Z,5.30
2019-05-10T22:39:54.934Z,5.30
2019-05-10T22:42:22.015Z,5.30
2019-05-10T22:44:49.051Z,5.20
2019-05-10T22:47:16.184Z,5.20
2019-05-10T22:49:43.207Z,5.20
2019-05-10T22:52:10.270Z,5.20
2019-05-10T22:54:37.268Z,5.20
2019-05-10T22:57:04.317Z,5.20
2019-05-10T22:59:31.329Z,5.20
2019-05-10T23:02:00.863Z,5.20
2019-05-10T23:04:27.865Z,5.20
2019-05-10T23:06:54.926Z,5.20
2019-05-10T23:09:25.027Z,5.20
2019-05-10T23:11:50.794Z,5.20
2019-05-10T23:14:17.829Z,5.20
2019-05-10T23:16:44.875Z,5.20
2019-05-10T23:19:11.930Z,5.20
2019-05-10T23:21:39.190Z,5.30
2019-05-10T23:24:06.349Z,5.20
2019-05-10T23:26:34.899Z,5.20
2019-05-10T23:29:02.027Z,5.20
2019-05-10T23:31:29.121Z,5.20
2019-05-10T23:33:56.166Z,5.20
2019-05-10T23:36:23.183Z,5.20
2019-05-10T23:38:52.262Z,5.20
2019-05-10T23:41:19.010Z,5.20
2019-05-10T23:43:46.028Z,5.20
2019-05-10T23:46:13.093Z,5.20
2019-05-10T23:48:40.097Z,5.20
2019-05-10T23:51:07.168Z,5.20
2019-05-10T23:53:34.193Z,5.20
2019-05-10T23:56:01.286Z,5.20
2019-05-10T23:58:28.325Z,5.20
